sensor_id;sensor_type;location;lat;lon;timestamp;pressure;altitude;pressure_sealevel;temperature;humidity
45323;BME280;31382;50.200;8.674;2023-08-08T00:01:44;100343.97;;;16.91;58.86
45323;BME280;31382;50.200;8.674;2023-08-08T00:06:45;100346.28;;;16.80;59.03
45323;BME280;31382;50.200;8.674;2023-08-08T00:11:47;100339.47;;;16.71;59.58
45323;BME280;31382;50.200;8.674;2023-08-08T00:16:48;100345.56;;;16.60;59.89
45323;BME280;31382;50.200;8.674;2023-08-08T00:21:49;100352.88;;;16.53;60.13
45323;BME280;31382;50.200;8.674;2023-08-08T00:26:51;100351.88;;;16.47;60.25
45323;BME280;31382;50.200;8.674;2023-08-08T00:31:52;100355.84;;;16.44;60.56
45323;BME280;31382;50.200;8.674;2023-08-08T00:36:54;100347.53;;;16.39;60.74
45323;BME280;31382;50.200;8.674;2023-08-08T00:41:55;100340.88;;;16.35;60.79
45323;BME280;31382;50.200;8.674;2023-08-08T00:46:57;100337.94;;;16.30;61.21
45323;BME280;31382;50.200;8.674;2023-08-08T00:51:59;100347.97;;;16.30;61.30
45323;BME280;31382;50.200;8.674;2023-08-08T00:57:01;100334.41;;;16.30;61.34
45323;BME280;31382;50.200;8.674;2023-08-08T01:02:02;100322.53;;;16.24;61.75
45323;BME280;31382;50.200;8.674;2023-08-08T01:13:02;100319.25;;;16.09;61.98
45323;BME280;31382;50.200;8.674;2023-08-08T01:18:07;100311.56;;;16.05;62.40
45323;BME280;31382;50.200;8.674;2023-08-08T01:23:14;100313.03;;;15.95;62.81
45323;BME280;31382;50.200;8.674;2023-08-08T01:28:21;100312.59;;;15.91;63.10
45323;BME280;31382;50.200;8.674;2023-08-08T01:33:23;100308.03;;;15.85;62.97
45323;BME280;31382;50.200;8.674;2023-08-08T01:38:37;100301.19;;;15.76;63.28
45323;BME280;31382;50.200;8.674;2023-08-08T01:43:40;100300.31;;;15.69;63.41
45323;BME280;31382;50.200;8.674;2023-08-08T01:48:45;100303.03;;;15.62;63.31
45323;BME280;31382;50.200;8.674;2023-08-08T01:53:47;100296.19;;;15.53;63.54
45323;BME280;31382;50.200;8.674;2023-08-08T01:58:48;100299.94;;;15.38;63.79
45323;BME280;31382;50.200;8.674;2023-08-08T02:03:50;100294.09;;;15.28;64.01
45323;BME280;31382;50.200;8.674;2023-08-08T02:08:51;100298.06;;;15.19;64.44
45323;BME280;31382;50.200;8.674;2023-08-08T02:13:53;100295.13;;;15.07;64.44
45323;BME280;31382;50.200;8.674;2023-08-08T02:18:54;100293.66;;;14.98;64.43
45323;BME280;31382;50.200;8.674;2023-08-08T02:23:56;100279.28;;;14.91;64.58
45323;BME280;31382;50.200;8.674;2023-08-08T02:28:57;100288.41;;;14.83;64.81
45323;BME280;31382;50.200;8.674;2023-08-08T02:33:58;100280.31;;;14.76;65.03
45323;BME280;31382;50.200;8.674;2023-08-08T02:39:00;100285.91;;;14.68;65.06
45323;BME280;31382;50.200;8.674;2023-08-08T02:44:01;100281.50;;;14.60;65.47
45323;BME280;31382;50.200;8.674;2023-08-08T02:49:04;100284.81;;;14.56;65.52
45323;BME280;31382;50.200;8.674;2023-08-08T02:54:05;100281.25;;;14.48;65.67
45323;BME280;31382;50.200;8.674;2023-08-08T02:59:07;100293.50;;;14.44;66.09
45323;BME280;31382;50.200;8.674;2023-08-08T03:04:08;100298.91;;;14.44;66.50
45323;BME280;31382;50.200;8.674;2023-08-08T03:09:10;100295.00;;;14.54;66.48
45323;BME280;31382;50.200;8.674;2023-08-08T03:14:11;100298.81;;;14.59;66.51
45323;BME280;31382;50.200;8.674;2023-08-08T03:19:13;100292.34;;;14.67;66.69
45323;BME280;31382;50.200;8.674;2023-08-08T03:24:14;100286.34;;;14.72;66.79
45323;BME280;31382;50.200;8.674;2023-08-08T03:29:15;100292.56;;;14.79;66.88
45323;BME280;31382;50.200;8.674;2023-08-08T03:34:17;100285.72;;;14.83;66.86
45323;BME280;31382;50.200;8.674;2023-08-08T03:39:18;100281.97;;;14.91;66.85
45323;BME280;31382;50.200;8.674;2023-08-08T03:44:20;100282.59;;;14.86;67.15
45323;BME280;31382;50.200;8.674;2023-08-08T03:49:21;100275.13;;;14.88;66.80
45323;BME280;31382;50.200;8.674;2023-08-08T03:54:23;100276.56;;;14.91;66.77
45323;BME280;31382;50.200;8.674;2023-08-08T03:59:24;100270.34;;;14.90;67.00
45323;BME280;31382;50.200;8.674;2023-08-08T04:04:26;100273.47;;;14.87;67.21
45323;BME280;31382;50.200;8.674;2023-08-08T04:09:27;100277.00;;;14.87;67.07
45323;BME280;31382;50.200;8.674;2023-08-08T04:14:28;100273.03;;;14.90;67.18
45323;BME280;31382;50.200;8.674;2023-08-08T04:19:30;100264.31;;;15.01;66.89
45323;BME280;31382;50.200;8.674;2023-08-08T04:24:31;100274.09;;;15.02;66.82
45323;BME280;31382;50.200;8.674;2023-08-08T04:29:33;100281.81;;;14.99;66.99
45323;BME280;31382;50.200;8.674;2023-08-08T04:34:34;100279.09;;;15.05;66.77
45323;BME280;31382;50.200;8.674;2023-08-08T04:39:36;100284.31;;;15.07;66.90
45323;BME280;31382;50.200;8.674;2023-08-08T04:44:37;100278.03;;;15.00;67.34
45323;BME280;31382;50.200;8.674;2023-08-08T04:49:38;100268.91;;;15.01;67.55
45323;BME280;31382;50.200;8.674;2023-08-08T04:54:40;100271.59;;;15.01;67.67
45323;BME280;31382;50.200;8.674;2023-08-08T04:59:41;100278.28;;;15.05;67.78
45323;BME280;31382;50.200;8.674;2023-08-08T05:04:43;100264.09;;;15.03;67.85
45323;BME280;31382;50.200;8.674;2023-08-08T05:09:45;100262.66;;;15.07;67.74
45323;BME280;31382;50.200;8.674;2023-08-08T05:14:47;100270.97;;;15.12;67.81
45323;BME280;31382;50.200;8.674;2023-08-08T05:19:48;100269.09;;;15.19;67.48
45323;BME280;31382;50.200;8.674;2023-08-08T05:24:49;100267.66;;;15.17;67.55
45323;BME280;31382;50.200;8.674;2023-08-08T05:29:51;100257.22;;;15.20;67.62
45323;BME280;31382;50.200;8.674;2023-08-08T05:34:52;100248.47;;;15.18;67.80
45323;BME280;31382;50.200;8.674;2023-08-08T05:39:54;100259.31;;;15.25;67.75
45323;BME280;31382;50.200;8.674;2023-08-08T05:44:55;100255.34;;;15.34;67.56
45323;BME280;31382;50.200;8.674;2023-08-08T05:49:56;100263.66;;;15.46;67.66
45323;BME280;31382;50.200;8.674;2023-08-08T05:54:58;100263.03;;;15.57;67.42
45323;BME280;31382;50.200;8.674;2023-08-08T06:00:03;100265.91;;;15.69;67.43
45323;BME280;31382;50.200;8.674;2023-08-08T06:05:05;100266.34;;;15.86;67.06
45323;BME280;31382;50.200;8.674;2023-08-08T06:10:07;100264.44;;;15.93;66.97
45323;BME280;31382;50.200;8.674;2023-08-08T06:15:09;100269.41;;;16.10;66.43
45323;BME280;31382;50.200;8.674;2023-08-08T06:20:11;100272.03;;;16.30;66.47
45323;BME280;31382;50.200;8.674;2023-08-08T06:25:12;100264.91;;;16.35;66.28
45323;BME280;31382;50.200;8.674;2023-08-08T06:30:14;100253.97;;;16.49;65.81
45323;BME280;31382;50.200;8.674;2023-08-08T06:35:15;100255.13;;;16.66;65.70
45323;BME280;31382;50.200;8.674;2023-08-08T06:40:18;100245.81;;;16.80;65.37
45323;BME280;31382;50.200;8.674;2023-08-08T06:45:19;100245.94;;;16.99;65.09
45323;BME280;31382;50.200;8.674;2023-08-08T06:50:20;100242.53;;;17.10;64.90
45323;BME280;31382;50.200;8.674;2023-08-08T06:55:22;100240.53;;;17.24;64.45
45323;BME280;31382;50.200;8.674;2023-08-08T07:00:23;100245.31;;;17.47;63.96
45323;BME280;31382;50.200;8.674;2023-08-08T07:05:25;100253.50;;;17.66;63.62
45323;BME280;31382;50.200;8.674;2023-08-08T07:10:27;100247.78;;;17.74;63.31
45323;BME280;31382;50.200;8.674;2023-08-08T07:15:29;100241.59;;;18.03;62.70
45323;BME280;31382;50.200;8.674;2023-08-08T07:20:31;100240.09;;;18.08;62.21
45323;BME280;31382;50.200;8.674;2023-08-08T07:25:34;100234.56;;;18.14;61.69
45323;BME280;31382;50.200;8.674;2023-08-08T07:30:35;100230.56;;;18.17;61.10
45323;BME280;31382;50.200;8.674;2023-08-08T07:35:37;100233.41;;;18.22;60.75
45323;BME280;31382;50.200;8.674;2023-08-08T07:40:38;100230.53;;;18.35;60.23
45323;BME280;31382;50.200;8.674;2023-08-08T07:45:42;100220.72;;;18.46;59.54
45323;BME280;31382;50.200;8.674;2023-08-08T07:50:43;100218.78;;;18.65;58.84
45323;BME280;31382;50.200;8.674;2023-08-08T07:55:45;100212.47;;;18.83;58.20
45323;BME280;31382;50.200;8.674;2023-08-08T08:00:46;100213.56;;;19.06;57.48
45323;BME280;31382;50.200;8.674;2023-08-08T08:05:48;100204.69;;;19.10;56.66
45323;BME280;31382;50.200;8.674;2023-08-08T08:10:49;100208.38;;;19.28;55.83
45323;BME280;31382;50.200;8.674;2023-08-08T08:15:52;100217.72;;;19.55;55.04
45323;BME280;31382;50.200;8.674;2023-08-08T08:20:53;100205.72;;;19.80;54.14
45323;BME280;31382;50.200;8.674;2023-08-08T08:25:55;100209.75;;;19.89;52.92
45323;BME280;31382;50.200;8.674;2023-08-08T08:30:56;100199.59;;;20.13;52.64
45323;BME280;31382;50.200;8.674;2023-08-08T08:35:58;100193.63;;;20.45;51.87
45323;BME280;31382;50.200;8.674;2023-08-08T08:41:01;100193.53;;;20.69;50.91
45323;BME280;31382;50.200;8.674;2023-08-08T08:46:03;100193.28;;;20.70;50.43
45323;BME280;31382;50.200;8.674;2023-08-08T08:51:05;100195.88;;;20.94;49.73
45323;BME280;31382;50.200;8.674;2023-08-08T08:56:06;100203.97;;;20.72;49.46
45323;BME280;31382;50.200;8.674;2023-08-08T09:01:10;100198.09;;;20.97;49.12
45323;BME280;31382;50.200;8.674;2023-08-08T09:06:12;100198.44;;;20.84;48.89
45323;BME280;31382;50.200;8.674;2023-08-08T09:11:13;100197.13;;;21.03;48.90
45323;BME280;31382;50.200;8.674;2023-08-08T09:16:15;100197.59;;;21.17;48.97
45323;BME280;31382;50.200;8.674;2023-08-08T09:21:18;100194.50;;;21.30;48.57
45323;BME280;31382;50.200;8.674;2023-08-08T09:26:19;100196.22;;;21.53;48.29
45323;BME280;31382;50.200;8.674;2023-08-08T09:31:21;100191.25;;;21.50;48.12
45323;BME280;31382;50.200;8.674;2023-08-08T09:36:25;100189.88;;;21.31;47.60
45323;BME280;31382;50.200;8.674;2023-08-08T09:41:27;100188.13;;;21.25;47.24
45323;BME280;31382;50.200;8.674;2023-08-08T09:46:29;100179.91;;;21.42;47.42
45323;BME280;31382;50.200;8.674;2023-08-08T09:51:32;100187.00;;;21.59;47.29
45323;BME280;31382;50.200;8.674;2023-08-08T09:56:35;100173.53;;;21.75;46.66
45323;BME280;31382;50.200;8.674;2023-08-08T10:01:39;100177.28;;;21.69;45.37
45323;BME280;31382;50.200;8.674;2023-08-08T10:06:41;100166.47;;;21.79;45.97
45323;BME280;31382;50.200;8.674;2023-08-08T10:11:43;100180.84;;;21.91;45.46
45323;BME280;31382;50.200;8.674;2023-08-08T10:16:47;100167.09;;;22.08;45.63
45323;BME280;31382;50.200;8.674;2023-08-08T10:21:57;100177.88;;;22.42;44.62
45323;BME280;31382;50.200;8.674;2023-08-08T10:27:02;100183.81;;;22.34;43.23
45323;BME280;31382;50.200;8.674;2023-08-08T10:32:06;100176.59;;;22.50;42.34
45323;BME280;31382;50.200;8.674;2023-08-08T10:37:09;100180.78;;;22.63;41.51
45323;BME280;31382;50.200;8.674;2023-08-08T10:42:18;100172.56;;;22.57;40.42
45323;BME280;31382;50.200;8.674;2023-08-08T10:47:23;100178.28;;;22.56;39.79
45323;BME280;31382;50.200;8.674;2023-08-08T10:52:25;100174.88;;;22.44;39.60
45323;BME280;31382;50.200;8.674;2023-08-08T10:57:27;100174.56;;;22.40;39.66
45323;BME280;31382;50.200;8.674;2023-08-08T11:02:28;100174.16;;;22.53;39.36
45323;BME280;31382;50.200;8.674;2023-08-08T11:07:33;100177.97;;;22.52;39.34
45323;BME280;31382;50.200;8.674;2023-08-08T11:12:36;100186.50;;;22.56;39.40
45323;BME280;31382;50.200;8.674;2023-08-08T11:17:38;100177.19;;;22.57;39.51
45323;BME280;31382;50.200;8.674;2023-08-08T11:22:39;100193.78;;;22.45;39.88
45323;BME280;31382;50.200;8.674;2023-08-08T11:27:48;100184.06;;;22.32;39.38
45323;BME280;31382;50.200;8.674;2023-08-08T11:32:50;100174.72;;;22.55;38.50
45323;BME280;31382;50.200;8.674;2023-08-08T11:37:56;100176.72;;;22.65;38.01
45323;BME280;31382;50.200;8.674;2023-08-08T11:42:58;100181.31;;;22.92;37.29
45323;BME280;31382;50.200;8.674;2023-08-08T11:48:00;100185.44;;;22.94;36.73
45323;BME280;31382;50.200;8.674;2023-08-08T11:53:02;100191.09;;;23.10;36.76
45323;BME280;31382;50.200;8.674;2023-08-08T11:58:05;100177.53;;;23.35;36.67
45323;BME280;31382;50.200;8.674;2023-08-08T12:03:07;100171.84;;;23.47;36.59
45323;BME280;31382;50.200;8.674;2023-08-08T12:08:09;100181.41;;;23.40;36.98
45323;BME280;31382;50.200;8.674;2023-08-08T12:13:11;100177.47;;;23.25;36.42
45323;BME280;31382;50.200;8.674;2023-08-08T12:18:16;100162.69;;;23.31;36.61
45323;BME280;31382;50.200;8.674;2023-08-08T12:23:19;100175.44;;;23.53;36.58
45323;BME280;31382;50.200;8.674;2023-08-08T12:28:20;100169.22;;;23.68;36.85
45323;BME280;31382;50.200;8.674;2023-08-08T12:33:21;100174.59;;;23.42;36.78
45323;BME280;31382;50.200;8.674;2023-08-08T12:38:23;100165.28;;;23.48;36.49
45323;BME280;31382;50.200;8.674;2023-08-08T12:43:24;100187.44;;;23.84;36.24
45323;BME280;31382;50.200;8.674;2023-08-08T12:48:26;100168.41;;;23.72;36.20
45323;BME280;31382;50.200;8.674;2023-08-08T12:53:27;100165.09;;;23.75;35.61
45323;BME280;31382;50.200;8.674;2023-08-08T12:58:29;100162.72;;;23.84;35.86
45323;BME280;31382;50.200;8.674;2023-08-08T13:03:30;100165.78;;;23.98;35.71
45323;BME280;31382;50.200;8.674;2023-08-08T13:08:35;100150.28;;;23.71;35.78
45323;BME280;31382;50.200;8.674;2023-08-08T13:13:36;100163.56;;;23.37;36.55
45323;BME280;31382;50.200;8.674;2023-08-08T13:18:38;100149.94;;;23.10;36.23
45323;BME280;31382;50.200;8.674;2023-08-08T13:23:41;100143.50;;;22.94;36.62
45323;BME280;31382;50.200;8.674;2023-08-08T13:28:43;100140.88;;;22.72;36.78
45323;BME280;31382;50.200;8.674;2023-08-08T13:33:44;100148.59;;;22.75;37.33
45323;BME280;31382;50.200;8.674;2023-08-08T13:38:45;100153.22;;;22.74;36.96
45323;BME280;31382;50.200;8.674;2023-08-08T13:43:47;100149.09;;;22.72;37.58
45323;BME280;31382;50.200;8.674;2023-08-08T13:48:48;100140.41;;;23.17;37.62
45323;BME280;31382;50.200;8.674;2023-08-08T13:53:50;100131.47;;;23.32;36.83
45323;BME280;31382;50.200;8.674;2023-08-08T13:58:51;100137.56;;;23.50;36.81
45323;BME280;31382;50.200;8.674;2023-08-08T14:03:53;100121.34;;;23.43;36.79
45323;BME280;31382;50.200;8.674;2023-08-08T14:08:54;100118.63;;;23.48;36.76
45323;BME280;31382;50.200;8.674;2023-08-08T14:13:56;100122.94;;;23.34;37.21
45323;BME280;31382;50.200;8.674;2023-08-08T14:18:57;100134.59;;;23.09;37.49
45323;BME280;31382;50.200;8.674;2023-08-08T14:24:00;100129.44;;;22.80;38.22
45323;BME280;31382;50.200;8.674;2023-08-08T14:29:01;100135.50;;;22.50;38.29
45323;BME280;31382;50.200;8.674;2023-08-08T14:34:03;100128.00;;;22.40;38.47
45323;BME280;31382;50.200;8.674;2023-08-08T14:39:04;100120.91;;;22.44;38.70
45323;BME280;31382;50.200;8.674;2023-08-08T14:44:05;100125.13;;;22.57;39.00
45323;BME280;31382;50.200;8.674;2023-08-08T14:49:07;100119.13;;;22.60;38.96
45323;BME280;31382;50.200;8.674;2023-08-08T14:54:09;100124.63;;;22.60;39.15
45323;BME280;31382;50.200;8.674;2023-08-08T14:59:10;100126.78;;;22.58;39.15
45323;BME280;31382;50.200;8.674;2023-08-08T15:04:11;100130.22;;;22.43;39.46
45323;BME280;31382;50.200;8.674;2023-08-08T15:09:13;100134.38;;;22.51;39.55
45323;BME280;31382;50.200;8.674;2023-08-08T15:14:15;100138.59;;;22.31;39.78
45323;BME280;31382;50.200;8.674;2023-08-08T15:19:19;100132.84;;;22.28;39.79
45323;BME280;31382;50.200;8.674;2023-08-08T15:24:20;100144.22;;;22.20;40.25
45323;BME280;31382;50.200;8.674;2023-08-08T15:29:22;100139.22;;;22.38;39.93
45323;BME280;31382;50.200;8.674;2023-08-08T15:34:25;100140.34;;;22.43;40.09
45323;BME280;31382;50.200;8.674;2023-08-08T15:39:27;100138.66;;;22.36;40.29
45323;BME280;31382;50.200;8.674;2023-08-08T15:44:28;100149.59;;;22.36;40.74
45323;BME280;31382;50.200;8.674;2023-08-08T15:49:30;100149.03;;;22.34;40.94
45323;BME280;31382;50.200;8.674;2023-08-08T15:54:32;100151.53;;;22.36;41.08
45323;BME280;31382;50.200;8.674;2023-08-08T15:59:33;100160.00;;;22.34;41.41
45323;BME280;31382;50.200;8.674;2023-08-08T16:04:34;100149.09;;;22.40;41.93
45323;BME280;31382;50.200;8.674;2023-08-08T16:09:36;100143.47;;;22.51;42.11
45323;BME280;31382;50.200;8.674;2023-08-08T16:14:38;100149.13;;;22.45;42.21
45323;BME280;31382;50.200;8.674;2023-08-08T16:19:39;100150.97;;;22.34;42.97
45323;BME280;31382;50.200;8.674;2023-08-08T16:24:41;100157.28;;;22.12;42.84
45323;BME280;31382;50.200;8.674;2023-08-08T16:29:42;100154.16;;;22.04;43.46
45323;BME280;31382;50.200;8.674;2023-08-08T16:34:44;100154.69;;;22.01;43.56
45323;BME280;31382;50.200;8.674;2023-08-08T16:39:47;100165.53;;;21.90;43.95
45323;BME280;31382;50.200;8.674;2023-08-08T16:44:48;100150.88;;;21.79;44.53
45323;BME280;31382;50.200;8.674;2023-08-08T16:49:50;100152.72;;;21.96;44.26
45323;BME280;31382;50.200;8.674;2023-08-08T16:54:51;100157.25;;;21.85;44.30
45323;BME280;31382;50.200;8.674;2023-08-08T16:59:55;100155.31;;;21.86;44.83
45323;BME280;31382;50.200;8.674;2023-08-08T17:04:56;100136.31;;;21.96;44.91
45323;BME280;31382;50.200;8.674;2023-08-08T17:09:58;100141.31;;;22.04;44.73
45323;BME280;31382;50.200;8.674;2023-08-08T17:15:00;100147.28;;;22.01;45.06
45323;BME280;31382;50.200;8.674;2023-08-08T17:20:01;100156.63;;;22.05;44.85
45323;BME280;31382;50.200;8.674;2023-08-08T17:25:06;100158.25;;;22.01;45.34
45323;BME280;31382;50.200;8.674;2023-08-08T17:30:08;100153.72;;;22.12;45.32
45323;BME280;31382;50.200;8.674;2023-08-08T17:35:11;100150.41;;;22.10;45.55
45323;BME280;31382;50.200;8.674;2023-08-08T17:40:13;100151.16;;;22.05;46.05
45323;BME280;31382;50.200;8.674;2023-08-08T17:45:15;100152.41;;;21.92;46.06
45323;BME280;31382;50.200;8.674;2023-08-08T17:50:16;100162.66;;;21.80;46.51
45323;BME280;31382;50.200;8.674;2023-08-08T17:55:18;100160.09;;;21.73;46.76
45323;BME280;31382;50.200;8.674;2023-08-08T18:00:19;100156.44;;;21.63;47.21
45323;BME280;31382;50.200;8.674;2023-08-08T18:05:21;100156.78;;;21.71;47.10
45323;BME280;31382;50.200;8.674;2023-08-08T18:10:22;100154.13;;;21.76;47.02
45323;BME280;31382;50.200;8.674;2023-08-08T18:15:24;100145.09;;;21.54;47.59
45323;BME280;31382;50.200;8.674;2023-08-08T18:20:25;100138.47;;;21.50;47.24
45323;BME280;31382;50.200;8.674;2023-08-08T18:25:27;100139.03;;;21.52;47.44
45323;BME280;31382;50.200;8.674;2023-08-08T18:30:28;100142.53;;;21.47;47.48
45323;BME280;31382;50.200;8.674;2023-08-08T18:35:29;100135.84;;;21.60;47.36
45323;BME280;31382;50.200;8.674;2023-08-08T18:40:31;100141.09;;;21.62;47.36
45323;BME280;31382;50.200;8.674;2023-08-08T18:45:32;100139.13;;;21.57;47.56
45323;BME280;31382;50.200;8.674;2023-08-08T18:50:34;100123.28;;;21.42;47.63
45323;BME280;31382;50.200;8.674;2023-08-08T18:55:35;100147.84;;;21.37;48.00
45323;BME280;31382;50.200;8.674;2023-08-08T19:00:37;100137.47;;;21.17;48.86
45323;BME280;31382;50.200;8.674;2023-08-08T19:05:38;100150.81;;;21.13;48.79
45323;BME280;31382;50.200;8.674;2023-08-08T19:10:40;100164.81;;;21.00;48.91
45323;BME280;31382;50.200;8.674;2023-08-08T19:15:41;100158.66;;;20.93;48.92
45323;BME280;31382;50.200;8.674;2023-08-08T19:20:42;100159.28;;;20.78;49.57
45323;BME280;31382;50.200;8.674;2023-08-08T19:25:46;100152.41;;;20.75;49.40
45323;BME280;31382;50.200;8.674;2023-08-08T19:30:47;100135.09;;;20.70;49.86
45323;BME280;31382;50.200;8.674;2023-08-08T19:35:49;100145.44;;;20.68;49.76
45323;BME280;31382;50.200;8.674;2023-08-08T19:40:50;100153.47;;;20.46;50.54
45323;BME280;31382;50.200;8.674;2023-08-08T19:45:52;100152.72;;;20.33;51.16
45323;BME280;31382;50.200;8.674;2023-08-08T19:50:54;100132.22;;;20.31;51.19
45323;BME280;31382;50.200;8.674;2023-08-08T19:55:56;100144.59;;;20.21;51.49
45323;BME280;31382;50.200;8.674;2023-08-08T20:00:59;100146.09;;;20.12;51.66
45323;BME280;31382;50.200;8.674;2023-08-08T20:06:01;100150.44;;;20.13;51.71
45323;BME280;31382;50.200;8.674;2023-08-08T20:11:02;100152.50;;;20.06;52.08
45323;BME280;31382;50.200;8.674;2023-08-08T20:16:06;100147.72;;;20.13;51.67
45323;BME280;31382;50.200;8.674;2023-08-08T20:21:08;100135.16;;;20.12;51.80
45323;BME280;31382;50.200;8.674;2023-08-08T20:26:09;100131.59;;;20.12;51.92
45323;BME280;31382;50.200;8.674;2023-08-08T20:31:11;100133.38;;;20.06;51.99
45323;BME280;31382;50.200;8.674;2023-08-08T20:36:13;100129.25;;;20.04;52.21
45323;BME280;31382;50.200;8.674;2023-08-08T20:41:15;100139.25;;;19.98;52.50
45323;BME280;31382;50.200;8.674;2023-08-08T20:46:16;100125.59;;;19.98;52.91
45323;BME280;31382;50.200;8.674;2023-08-08T20:51:18;100149.22;;;19.92;53.04
45323;BME280;31382;50.200;8.674;2023-08-08T20:56:19;100143.19;;;19.90;52.78
45323;BME280;31382;50.200;8.674;2023-08-08T21:01:21;100140.72;;;19.89;53.06
45323;BME280;31382;50.200;8.674;2023-08-08T21:06:23;100138.00;;;19.89;53.28
45323;BME280;31382;50.200;8.674;2023-08-08T21:11:24;100134.75;;;19.92;53.02
45323;BME280;31382;50.200;8.674;2023-08-08T21:16:25;100141.03;;;19.92;53.26
45323;BME280;31382;50.200;8.674;2023-08-08T21:21:27;100139.63;;;19.90;53.19
45323;BME280;31382;50.200;8.674;2023-08-08T21:26:28;100129.25;;;19.75;53.70
45323;BME280;31382;50.200;8.674;2023-08-08T21:31:40;100124.13;;;19.67;54.00
45323;BME280;31382;50.200;8.674;2023-08-08T21:36:41;100131.25;;;19.68;53.74
45323;BME280;31382;50.200;8.674;2023-08-08T21:41:42;100124.81;;;19.45;54.49
45323;BME280;31382;50.200;8.674;2023-08-08T21:46:44;100123.50;;;19.36;54.71
45323;BME280;31382;50.200;8.674;2023-08-08T21:51:45;100121.88;;;18.99;56.17
45323;BME280;31382;50.200;8.674;2023-08-08T21:56:47;100127.75;;;18.73;57.19
45323;BME280;31382;50.200;8.674;2023-08-08T22:01:49;100131.53;;;18.18;58.98
45323;BME280;31382;50.200;8.674;2023-08-08T22:06:50;100137.53;;;18.08;59.76
45323;BME280;31382;50.200;8.674;2023-08-08T22:11:53;100134.16;;;17.94;60.50
45323;BME280;31382;50.200;8.674;2023-08-08T22:16:54;100124.13;;;17.76;61.58
45323;BME280;31382;50.200;8.674;2023-08-08T22:21:56;100103.56;;;17.50;62.92
45323;BME280;31382;50.200;8.674;2023-08-08T22:26:57;100111.25;;;17.35;63.61
45323;BME280;31382;50.200;8.674;2023-08-08T22:31:59;100117.59;;;17.29;64.46
45323;BME280;31382;50.200;8.674;2023-08-08T22:37:00;100113.19;;;17.28;64.64
45323;BME280;31382;50.200;8.674;2023-08-08T22:42:04;100124.22;;;17.33;64.80
45323;BME280;31382;50.200;8.674;2023-08-08T22:47:05;100116.69;;;17.16;65.98
45323;BME280;31382;50.200;8.674;2023-08-08T22:52:07;100104.31;;;17.20;66.32
45323;BME280;31382;50.200;8.674;2023-08-08T22:57:08;100100.13;;;17.18;66.60
45323;BME280;31382;50.200;8.674;2023-08-08T23:02:10;100082.09;;;16.87;68.25
45323;BME280;31382;50.200;8.674;2023-08-08T23:07:12;100090.72;;;16.77;69.18
45323;BME280;31382;50.200;8.674;2023-08-08T23:12:14;100083.84;;;16.74;69.62
45323;BME280;31382;50.200;8.674;2023-08-08T23:17:15;100083.69;;;16.69;70.29
45323;BME280;31382;50.200;8.674;2023-08-08T23:22:17;100072.00;;;16.69;70.39
45323;BME280;31382;50.200;8.674;2023-08-08T23:27:18;100069.94;;;16.64;71.31
45323;BME280;31382;50.200;8.674;2023-08-08T23:32:20;100068.44;;;16.68;71.59
45323;BME280;31382;50.200;8.674;2023-08-08T23:37:21;100061.81;;;16.64;72.16
45323;BME280;31382;50.200;8.674;2023-08-08T23:42:23;100055.56;;;16.63;72.46
45323;BME280;31382;50.200;8.674;2023-08-08T23:47:24;100056.50;;;16.51;73.07
45323;BME280;31382;50.200;8.674;2023-08-08T23:52:25;100044.00;;;16.50;73.24
45323;BME280;31382;50.200;8.674;2023-08-08T23:57:27;100051.31;;;16.49;73.82
